createdAt,value
2022-09-22T00:01:18.043Z,1.93
2022-09-22T00:03:47.093Z,2.13
2022-09-22T00:06:16.453Z,2.40
2022-09-22T00:08:46.185Z,2.30
2022-09-22T00:11:20.812Z,2.90
2022-09-22T00:13:51.258Z,3.00
2022-09-22T00:16:25.274Z,3.00
2022-09-22T00:18:52.003Z,2.90
2022-09-22T00:21:20.547Z,2.77
2022-09-22T00:23:47.691Z,3.10
2022-09-22T00:26:19.847Z,3.03
2022-09-22T00:28:48.017Z,3.20
2022-09-22T00:31:18.844Z,3.10
2022-09-22T00:33:46.342Z,3.00
2022-09-22T00:36:14.661Z,3.03
2022-09-22T00:38:42.471Z,2.70
2022-09-22T00:41:17.750Z,2.87
2022-09-22T00:43:47.819Z,3.30
2022-09-22T00:46:21.453Z,3.17
2022-09-22T00:48:52.979Z,3.27
2022-09-22T00:51:23.650Z,2.70
2022-09-22T00:53:52.327Z,3.07
2022-09-22T00:56:25.267Z,3.13
2022-09-22T00:58:58.654Z,3.23
2022-09-22T01:01:25.492Z,3.17
2022-09-22T01:03:52.587Z,3.40
2022-09-22T01:06:26.392Z,3.07
2022-09-22T01:08:54.590Z,3.60
2022-09-22T01:11:21.745Z,3.30
2022-09-22T01:14:28.189Z,3.37
2022-09-22T01:17:00.865Z,3.20
2022-09-22T01:19:33.373Z,3.10
2022-09-22T01:22:18.710Z,3.10
2022-09-22T01:25:03.636Z,2.60
2022-09-22T01:27:37.132Z,2.80
2022-09-22T01:30:17.335Z,2.93
2022-09-22T01:32:43.970Z,2.80
2022-09-22T01:35:27.737Z,2.80
2022-09-22T01:38:09.184Z,2.93
2022-09-22T01:41:00.228Z,3.10
2022-09-22T01:43:37.729Z,2.90
2022-09-22T01:46:12.238Z,2.90
2022-09-22T01:48:42.894Z,2.90
2022-09-22T01:51:18.532Z,2.70
2022-09-22T01:53:53.512Z,2.70
2022-09-22T01:56:22.666Z,3.00
2022-09-22T01:58:54.389Z,2.73
2022-09-22T02:01:29.019Z,2.80
2022-09-22T02:04:18.417Z,2.80
2022-09-22T02:06:51.017Z,2.50
2022-09-22T02:09:21.427Z,2.50
2022-09-22T02:11:48.623Z,2.93
2022-09-22T02:14:16.504Z,2.37
2022-09-22T02:16:43.161Z,2.67
2022-09-22T02:19:13.640Z,2.50
2022-09-22T02:21:43.176Z,2.87
2022-09-22T02:24:32.321Z,2.97
2022-09-22T02:27:02.470Z,2.87
2022-09-22T02:29:32.301Z,2.50
2022-09-22T02:32:02.584Z,2.70
2022-09-22T02:34:29.347Z,2.70
2022-09-22T02:37:20.795Z,2.70
2022-09-22T02:40:04.852Z,2.60
2022-09-22T02:42:34.693Z,2.70
2022-09-22T02:45:17.263Z,2.33
2022-09-22T02:47:47.616Z,2.60
2022-09-22T02:50:18.033Z,2.60
2022-09-22T02:52:44.823Z,2.60
2022-09-22T02:55:13.734Z,2.67
2022-09-22T02:57:40.481Z,2.50
2022-09-22T03:00:07.641Z,2.77
2022-09-22T03:02:34.341Z,2.47
2022-09-22T03:05:01.179Z,2.30
2022-09-22T03:07:28.297Z,2.67
2022-09-22T03:09:54.919Z,2.50
2022-09-22T03:12:21.622Z,2.70
2022-09-22T03:14:48.290Z,2.77
2022-09-22T03:17:15.027Z,2.83
2022-09-22T03:19:41.805Z,2.70
2022-09-22T03:22:08.509Z,2.53
2022-09-22T03:24:35.088Z,2.40
2022-09-22T03:27:01.723Z,2.63
2022-09-22T03:29:28.369Z,2.60
2022-09-22T03:31:55.053Z,2.90
2022-09-22T03:34:21.635Z,3.10
2022-09-22T03:36:48.584Z,2.40
2022-09-22T03:39:15.145Z,2.50
2022-09-22T03:41:41.821Z,2.77
2022-09-22T03:44:08.487Z,2.70
2022-09-22T03:46:35.102Z,2.87
2022-09-22T03:49:01.727Z,3.00
2022-09-22T03:51:31.267Z,2.83
2022-09-22T03:53:57.961Z,2.70
2022-09-22T03:56:24.677Z,2.93
2022-09-22T03:58:51.353Z,2.80
2022-09-22T04:01:18.197Z,2.87
2022-09-22T04:03:45.036Z,3.07
2022-09-22T04:06:12.175Z,2.60
2022-09-22T04:08:38.908Z,3.03
2022-09-22T04:11:06.285Z,3.23
2022-09-22T04:13:33.138Z,3.00
2022-09-22T04:16:00.087Z,3.63
2022-09-22T04:18:26.760Z,3.57
2022-09-22T04:20:56.689Z,4.27
2022-09-22T04:23:23.812Z,3.43
2022-09-22T04:25:50.554Z,2.80
2022-09-22T04:28:17.168Z,2.93
2022-09-22T04:30:43.835Z,3.70
2022-09-22T04:33:11.084Z,2.70
2022-09-22T04:35:38.047Z,2.37
2022-09-22T04:38:04.810Z,3.30
2022-09-22T04:40:31.661Z,3.10
2022-09-22T04:42:58.506Z,3.00
2022-09-22T04:45:25.355Z,2.70
2022-09-22T04:47:53.140Z,3.00
2022-09-22T04:50:21.769Z,3.00
2022-09-22T04:52:51.582Z,3.10
2022-09-22T04:55:18.296Z,3.27
2022-09-22T04:57:49.235Z,3.27
2022-09-22T05:00:17.146Z,3.70
2022-09-22T05:02:43.900Z,3.10
2022-09-22T05:05:11.228Z,3.90
2022-09-22T05:07:42.258Z,3.83
2022-09-22T05:10:09.600Z,3.77
2022-09-22T05:12:44.603Z,3.93
2022-09-22T05:15:13.171Z,3.50
2022-09-22T05:17:47.341Z,3.63
2022-09-22T05:20:14.817Z,3.53
2022-09-22T05:22:43.321Z,3.70
2022-09-22T05:25:12.514Z,3.20
2022-09-22T05:27:51.261Z,3.20
2022-09-22T05:30:19.686Z,3.27
2022-09-22T05:32:47.878Z,3.17
2022-09-22T05:35:17.560Z,2.53
2022-09-22T05:37:46.087Z,2.77
2022-09-22T05:40:13.957Z,2.70
2022-09-22T05:42:45.277Z,2.77
2022-09-22T05:45:12.420Z,2.40
2022-09-22T05:47:39.979Z,2.60
2022-09-22T05:50:08.199Z,2.50
2022-09-22T05:52:35.081Z,2.30
2022-09-22T05:55:01.990Z,2.60
2022-09-22T05:57:28.578Z,2.37
2022-09-22T05:59:58.450Z,2.33
2022-09-22T06:02:26.643Z,2.43
2022-09-22T06:04:54.119Z,2.40
2022-09-22T06:07:21.952Z,2.57
2022-09-22T06:09:49.230Z,3.10
2022-09-22T06:12:16.703Z,2.80
2022-09-22T06:14:44.106Z,2.80
2022-09-22T06:17:12.309Z,3.70
2022-09-22T06:19:39.653Z,3.43
2022-09-22T06:22:07.148Z,3.50
2022-09-22T06:24:33.764Z,3.20
2022-09-22T06:27:00.356Z,3.40
2022-09-22T06:29:27.186Z,3.50
2022-09-22T06:31:54.136Z,3.30
2022-09-22T06:34:21.126Z,3.20
2022-09-22T06:36:48.178Z,2.90
2022-09-22T06:39:14.985Z,3.10
2022-09-22T06:41:41.569Z,3.50
2022-09-22T06:44:09.422Z,3.20
2022-09-22T06:46:35.998Z,2.77
2022-09-22T06:49:02.664Z,2.80
2022-09-22T06:51:33.810Z,2.70
2022-09-22T06:54:02.290Z,2.90
2022-09-22T06:56:29.325Z,3.73
2022-09-22T06:59:09.839Z,3.13
2022-09-22T07:01:38.235Z,2.87
2022-09-22T07:04:05.465Z,3.20
2022-09-22T07:06:32.574Z,2.67
2022-09-22T07:08:59.532Z,3.10
2022-09-22T07:11:27.851Z,3.33
2022-09-22T07:13:55.246Z,3.20
2022-09-22T07:16:26.895Z,3.50
2022-09-22T07:18:57.872Z,3.23
2022-09-22T07:21:29.919Z,2.60
2022-09-22T07:23:58.125Z,2.67
2022-09-22T07:26:32.089Z,3.00
2022-09-22T07:29:02.779Z,3.00
2022-09-22T07:31:31.804Z,3.00
2022-09-22T07:33:59.308Z,3.40
2022-09-22T07:36:28.354Z,3.20
2022-09-22T07:38:57.517Z,3.30
2022-09-22T07:41:27.121Z,3.13
2022-09-22T07:43:55.953Z,3.37
2022-09-22T07:46:23.741Z,3.30
2022-09-22T07:48:51.449Z,3.17
2022-09-22T07:51:23.695Z,3.00
2022-09-22T07:53:54.624Z,2.77
2022-09-22T07:56:21.561Z,3.47
2022-09-22T07:58:53.026Z,3.03
2022-09-22T08:01:23.214Z,3.53
2022-09-22T08:03:50.735Z,3.27
2022-09-22T08:06:19.364Z,3.53
2022-09-22T08:08:48.406Z,3.60
2022-09-22T08:11:28.782Z,3.97
2022-09-22T08:14:01.676Z,3.93
2022-09-22T08:16:31.179Z,4.00
2022-09-22T08:19:00.163Z,3.60
2022-09-22T08:21:28.740Z,4.00
2022-09-22T08:23:55.362Z,4.37
2022-09-22T08:26:22.923Z,4.20
2022-09-22T08:28:54.370Z,3.90
2022-09-22T08:31:22.377Z,3.60
2022-09-22T08:33:50.128Z,4.10
2022-09-22T08:36:17.216Z,3.60
2022-09-22T08:38:44.348Z,3.53
2022-09-22T08:41:35.568Z,3.23
2022-09-22T08:44:17.816Z,3.23
2022-09-22T08:46:46.885Z,3.00
2022-09-22T08:49:19.699Z,2.80
2022-09-22T08:51:52.831Z,3.17
2022-09-22T08:54:24.299Z,2.83
2022-09-22T08:57:08.375Z,2.88
2022-09-22T08:59:55.451Z,2.60
2022-09-22T09:02:49.196Z,2.28
2022-09-22T09:05:37.648Z,2.10
2022-09-22T09:08:26.219Z,2.42
2022-09-22T09:10:56.093Z,2.00
2022-09-22T09:14:00.431Z,1.83
2022-09-22T09:16:41.626Z,1.98
2022-09-22T09:19:34.595Z,1.90
2022-09-22T09:22:06.883Z,1.65
2022-09-22T09:27:42.005Z,1.50
2022-09-22T09:30:21.742Z,1.42
2022-09-22T09:33:02.000Z,1.40
2022-09-22T09:35:42.251Z,1.50
2022-09-22T09:38:12.765Z,1.40
2022-09-22T09:40:39.528Z,1.13
2022-09-22T09:43:07.477Z,1.30
2022-09-22T09:46:12.934Z,1.50
2022-09-22T09:49:06.848Z,1.50
2022-09-22T09:51:41.296Z,1.50
2022-09-22T09:54:16.024Z,1.45
2022-09-22T09:57:18.306Z,1.70
2022-09-22T09:59:47.451Z,1.35
2022-09-22T10:02:27.851Z,1.38
2022-09-22T10:05:02.131Z,1.35
2022-09-22T10:10:37.458Z,1.30
2022-09-22T10:13:04.576Z,1.02
2022-09-22T10:15:36.651Z,0.90
2022-09-22T10:18:24.526Z,1.20
2022-09-22T10:21:18.773Z,1.25
2022-09-22T10:23:50.845Z,1.00
2022-09-22T10:26:24.922Z,0.95
2022-09-22T10:29:09.829Z,1.02
2022-09-22T10:31:36.676Z,1.10
2022-09-22T10:34:03.748Z,1.10
2022-09-22T10:36:30.700Z,1.15
2022-09-22T10:38:59.718Z,1.10
2022-09-22T10:41:31.811Z,1.15
2022-09-22T10:44:39.452Z,1.08
2022-09-22T10:47:12.895Z,0.90
2022-09-22T10:49:56.358Z,0.80
2022-09-22T10:52:35.380Z,0.60
2022-09-22T10:55:17.229Z,0.70
2022-09-22T10:58:12.840Z,0.80
2022-09-22T11:00:41.529Z,0.90
2022-09-22T11:03:43.875Z,0.60
2022-09-22T11:06:41.577Z,0.60
2022-09-22T11:09:34.291Z,0.60
2022-09-22T11:12:29.513Z,0.70
2022-09-22T11:15:14.377Z,0.60
2022-09-22T11:17:56.614Z,0.63
2022-09-22T11:20:59.718Z,1.02
2022-09-22T11:24:00.030Z,0.60
2022-09-22T11:26:48.207Z,0.85
2022-09-22T11:29:46.009Z,1.00
2022-09-22T11:32:33.791Z,0.73
2022-09-22T11:35:03.604Z,0.70
2022-09-22T11:37:57.654Z,0.90
2022-09-22T11:40:40.611Z,0.75
2022-09-22T11:43:19.681Z,0.88
2022-09-22T11:46:01.416Z,1.00
2022-09-22T11:48:45.180Z,0.70
2022-09-22T11:51:36.790Z,0.90
2022-09-22T11:54:15.807Z,1.00
2022-09-22T11:56:47.186Z,0.90
2022-09-22T11:59:28.031Z,0.80
2022-09-22T12:01:58.774Z,0.90
2022-09-22T12:04:44.577Z,0.73
2022-09-22T12:07:21.976Z,0.77
2022-09-22T12:09:57.164Z,0.90
2022-09-22T12:12:24.645Z,0.95
2022-09-22T12:15:32.714Z,0.80
2022-09-22T12:18:40.913Z,0.98
2022-09-22T12:21:31.859Z,0.88
2022-09-22T12:24:09.117Z,0.82
2022-09-22T12:26:46.154Z,0.70
2022-09-22T12:29:16.139Z,0.98
2022-09-22T12:31:45.551Z,0.70
2022-09-22T12:34:39.487Z,0.98
2022-09-22T12:37:17.485Z,0.80
2022-09-22T12:39:48.341Z,0.60
2022-09-22T12:42:35.448Z,0.82
2022-09-22T12:45:09.927Z,0.88
2022-09-22T12:47:42.031Z,0.70
2022-09-22T12:50:24.288Z,0.60
2022-09-22T12:52:50.869Z,0.60
2022-09-22T12:55:21.866Z,0.75
2022-09-22T12:57:51.046Z,0.68
2022-09-22T13:00:37.783Z,0.80
2022-09-22T13:03:26.355Z,0.60
2022-09-22T13:05:55.550Z,0.52
2022-09-22T13:08:42.087Z,0.65
2022-09-22T13:11:09.745Z,0.70
2022-09-22T13:13:47.316Z,0.60
2022-09-22T13:16:14.062Z,0.70
2022-09-22T13:18:44.848Z,0.55
2022-09-22T13:21:14.600Z,0.60
2022-09-22T13:23:53.627Z,0.60
2022-09-22T13:26:35.683Z,0.60
2022-09-22T13:29:07.173Z,0.73
2022-09-22T13:31:54.578Z,0.60
2022-09-22T13:34:33.313Z,0.73
2022-09-22T13:37:04.660Z,0.60
2022-09-22T13:39:36.929Z,0.60
2022-09-22T13:42:12.495Z,0.60
2022-09-22T13:44:42.115Z,0.60
2022-09-22T13:47:22.886Z,0.63
2022-09-22T13:49:55.230Z,0.52
2022-09-22T13:52:26.254Z,0.57
2022-09-22T13:54:59.274Z,0.60
2022-09-22T13:57:31.608Z,0.70
2022-09-22T13:59:59.665Z,0.70
2022-09-22T14:02:31.505Z,0.40
2022-09-22T14:05:06.549Z,0.70
2022-09-22T14:07:49.616Z,0.60
2022-09-22T14:10:23.362Z,0.80
2022-09-22T14:12:49.968Z,0.68
2022-09-22T14:15:37.141Z,0.60
2022-09-22T14:18:27.377Z,0.60
2022-09-22T14:20:56.490Z,0.52
2022-09-22T14:23:31.366Z,0.50
2022-09-22T14:26:01.728Z,0.73
2022-09-22T14:28:33.762Z,0.55
2022-09-22T14:31:01.189Z,0.57
2022-09-22T14:33:33.326Z,0.70
2022-09-22T14:36:05.720Z,0.73
2022-09-22T14:38:45.882Z,0.60
2022-09-22T14:41:27.200Z,0.77
2022-09-22T14:43:54.304Z,0.75
2022-09-22T14:46:22.252Z,0.60
2022-09-22T14:48:48.952Z,0.70
2022-09-22T14:51:19.548Z,0.52
2022-09-22T14:54:12.137Z,0.60
2022-09-22T14:56:43.735Z,0.63
2022-09-22T14:59:17.308Z,0.93
2022-09-22T15:01:48.439Z,0.60
2022-09-22T15:04:23.022Z,0.60
2022-09-22T15:06:51.780Z,0.52
2022-09-22T15:09:29.097Z,0.60
2022-09-22T15:12:01.161Z,0.47
2022-09-22T15:14:36.565Z,0.50
2022-09-22T15:17:36.998Z,0.60
2022-09-22T15:20:04.108Z,0.70
2022-09-22T15:22:30.897Z,0.70
2022-09-22T15:24:58.343Z,0.60
2022-09-22T15:27:25.208Z,0.80
2022-09-22T15:29:52.103Z,0.68
2022-09-22T15:32:18.756Z,0.40
2022-09-22T15:34:45.708Z,0.60
2022-09-22T15:37:19.753Z,0.85
2022-09-22T15:39:46.388Z,0.60
2022-09-22T15:42:13.171Z,0.50
2022-09-22T15:44:40.655Z,0.55
2022-09-22T15:47:13.987Z,0.70
2022-09-22T15:49:41.168Z,0.50
2022-09-22T15:52:09.317Z,0.90
2022-09-22T15:54:36.466Z,0.70
2022-09-22T15:57:05.361Z,0.60
2022-09-22T15:59:33.327Z,0.57
2022-09-22T16:02:00.233Z,0.68
2022-09-22T16:04:27.827Z,0.80
2022-09-22T16:07:06.688Z,0.70
2022-09-22T16:09:36.705Z,0.50
2022-09-22T16:12:03.485Z,0.70
2022-09-22T16:14:30.300Z,1.10
2022-09-22T16:16:56.925Z,0.90
2022-09-22T16:19:24.101Z,0.90
2022-09-22T16:21:52.947Z,0.90
2022-09-22T16:24:21.082Z,0.80
2022-09-22T16:26:47.928Z,0.60
2022-09-22T16:29:14.816Z,0.70
2022-09-22T16:31:41.626Z,0.60
2022-09-22T16:34:09.009Z,0.82
2022-09-22T16:36:36.413Z,0.80
2022-09-22T16:39:04.237Z,0.70
2022-09-22T16:41:32.625Z,0.68
2022-09-22T16:44:00.672Z,0.68
2022-09-22T16:46:29.281Z,0.52
2022-09-22T16:48:59.459Z,0.82
2022-09-22T16:51:30.256Z,0.90
2022-09-22T16:53:57.512Z,0.60
2022-09-22T16:56:29.704Z,0.73
2022-09-22T16:58:57.252Z,0.98
2022-09-22T17:01:24.348Z,0.70
2022-09-22T17:03:51.843Z,0.90
2022-09-22T17:06:20.432Z,0.82
2022-09-22T17:08:47.287Z,1.00
2022-09-22T17:11:14.844Z,1.10
2022-09-22T17:13:42.697Z,0.90
2022-09-22T17:16:24.858Z,0.90
2022-09-22T17:18:52.590Z,0.85
2022-09-22T17:21:19.993Z,0.80
2022-09-22T17:23:47.405Z,0.98
2022-09-22T17:26:14.686Z,1.77
2022-09-22T17:28:41.479Z,1.25
2022-09-22T17:31:09.859Z,1.02
2022-09-22T17:33:38.657Z,1.10
2022-09-22T17:36:06.198Z,0.80
2022-09-22T17:38:36.897Z,0.90
2022-09-22T17:41:08.239Z,0.95
2022-09-22T17:43:36.080Z,0.70
2022-09-22T17:46:03.446Z,0.93
2022-09-22T17:48:30.731Z,0.80
2022-09-22T17:50:57.626Z,1.00
2022-09-22T17:53:24.363Z,1.10
2022-09-22T17:55:52.093Z,1.10
2022-09-22T17:58:18.889Z,1.00
2022-09-22T18:00:46.173Z,0.88
2022-09-22T18:03:13.585Z,1.13
2022-09-22T18:05:42.820Z,1.10
2022-09-22T18:08:10.340Z,1.00
2022-09-22T18:10:38.170Z,1.33
2022-09-22T18:13:05.932Z,1.20
2022-09-22T18:15:32.687Z,1.10
2022-09-22T18:18:02.337Z,1.27
2022-09-22T18:20:29.813Z,1.27
2022-09-22T18:22:57.091Z,1.67
2022-09-22T18:25:30.806Z,1.17
2022-09-22T18:28:30.867Z,1.20
2022-09-22T18:30:58.073Z,1.15
2022-09-22T18:33:25.917Z,0.93
2022-09-22T18:35:53.795Z,1.30
2022-09-22T18:38:20.905Z,1.30
2022-09-22T18:40:47.864Z,1.00
2022-09-22T18:43:15.290Z,1.02
2022-09-22T18:45:42.302Z,0.93
2022-09-22T18:48:09.436Z,1.27
2022-09-22T18:50:36.475Z,1.20
2022-09-22T18:53:04.135Z,1.20
2022-09-22T18:55:31.295Z,0.90
2022-09-22T18:57:58.137Z,1.20
2022-09-22T19:00:25.052Z,1.23
2022-09-22T19:02:52.041Z,1.10
2022-09-22T19:05:19.456Z,1.30
2022-09-22T19:10:38.553Z,1.20
2022-09-22T19:13:05.290Z,1.30
2022-09-22T19:15:37.019Z,1.00
2022-09-22T19:18:04.317Z,1.05
2022-09-22T19:20:30.952Z,1.38
2022-09-22T19:22:57.668Z,1.10
2022-09-22T19:25:24.525Z,1.00
2022-09-22T19:27:52.795Z,1.20
2022-09-22T19:30:23.358Z,1.20
2022-09-22T19:32:52.748Z,1.10
2022-09-22T19:35:20.100Z,1.23
2022-09-22T19:37:47.560Z,1.10
2022-09-22T19:40:14.849Z,1.07
2022-09-22T19:42:44.561Z,1.30
2022-09-22T19:45:11.574Z,1.42
2022-09-22T19:47:38.902Z,1.30
2022-09-22T19:50:06.481Z,1.30
2022-09-22T19:52:36.987Z,1.50
2022-09-22T19:55:08.520Z,1.27
2022-09-22T19:57:35.409Z,1.20
2022-09-22T20:00:02.077Z,1.40
2022-09-22T20:02:38.354Z,1.17
2022-09-22T20:05:10.577Z,1.47
2022-09-22T20:07:37.461Z,1.42
2022-09-22T20:10:04.964Z,1.30
2022-09-22T20:12:31.702Z,1.40
2022-09-22T20:14:58.491Z,1.30
2022-09-22T20:17:25.383Z,1.53
2022-09-22T20:19:51.969Z,1.50
2022-09-22T20:22:24.403Z,1.30
2022-09-22T20:24:53.403Z,1.17
2022-09-22T20:27:25.169Z,1.23
2022-09-22T20:29:56.837Z,1.50
2022-09-22T20:32:25.486Z,1.20
2022-09-22T20:34:53.619Z,1.27
2022-09-22T20:37:20.371Z,1.40
2022-09-22T20:39:47.127Z,1.47
2022-09-22T20:42:13.938Z,1.50
2022-09-22T20:44:40.501Z,1.33
2022-09-22T20:47:19.232Z,1.40
2022-09-22T20:49:50.824Z,1.50
2022-09-22T20:52:19.720Z,1.67
2022-09-22T20:54:46.561Z,1.43
2022-09-22T20:57:13.591Z,1.57
2022-09-22T20:59:40.198Z,1.23
2022-09-22T21:02:07.088Z,1.70
2022-09-22T21:04:33.990Z,1.33
2022-09-22T21:07:00.641Z,1.50
2022-09-22T21:09:27.289Z,1.50
2022-09-22T21:11:53.949Z,1.50
2022-09-22T21:14:20.566Z,1.40
2022-09-22T21:16:47.716Z,1.37
2022-09-22T21:19:14.894Z,1.53
2022-09-22T21:21:41.784Z,1.37
2022-09-22T21:24:09.234Z,1.53
2022-09-22T21:26:40.983Z,1.73
2022-09-22T21:29:08.396Z,1.67
2022-09-22T21:31:35.204Z,1.93
2022-09-22T21:34:01.942Z,1.80
2022-09-22T21:36:28.589Z,1.73
2022-09-22T21:38:57.731Z,1.90
2022-09-22T21:41:27.215Z,1.83
2022-09-22T21:43:54.908Z,1.97
2022-09-22T21:46:24.443Z,1.93
2022-09-22T21:48:56.857Z,2.20
2022-09-22T21:51:23.583Z,2.37
2022-09-22T21:53:54.520Z,2.20
2022-09-22T21:56:23.771Z,2.23
2022-09-22T21:58:52.736Z,2.13
2022-09-22T22:01:22.868Z,2.30
2022-09-22T22:03:51.664Z,2.30
2022-09-22T22:06:21.047Z,2.27
2022-09-22T22:08:54.131Z,2.27
2022-09-22T22:11:26.029Z,2.57
2022-09-22T22:13:55.049Z,2.30
2022-09-22T22:16:27.444Z,2.70
2022-09-22T22:18:54.088Z,2.53
2022-09-22T22:21:23.840Z,2.50
2022-09-22T22:23:55.845Z,2.60
2022-09-22T22:26:24.951Z,2.70
2022-09-22T22:28:52.782Z,2.47
2022-09-22T22:31:23.148Z,2.33
2022-09-22T22:33:50.487Z,2.70
2022-09-22T22:36:18.574Z,2.53
2022-09-22T22:38:45.936Z,3.00
2022-09-22T22:41:15.109Z,2.60
2022-09-22T22:43:42.615Z,2.93
2022-09-22T22:46:11.076Z,2.90
2022-09-22T22:48:37.974Z,2.53
2022-09-22T22:51:09.548Z,2.63
2022-09-22T22:53:36.198Z,2.90
2022-09-22T22:56:06.266Z,2.90
2022-09-22T22:58:35.562Z,3.00
2022-09-22T23:01:03.667Z,2.80
2022-09-22T23:03:30.445Z,2.80
2022-09-22T23:05:58.855Z,2.63
2022-09-22T23:08:29.658Z,2.90
2022-09-22T23:11:04.620Z,2.50
2022-09-22T23:13:32.995Z,2.60
2022-09-22T23:16:04.871Z,2.90
2022-09-22T23:18:33.041Z,2.70
2022-09-22T23:20:59.659Z,2.80
2022-09-22T23:23:26.329Z,2.60
2022-09-22T23:25:53.053Z,2.40
2022-09-22T23:28:20.278Z,2.50
2022-09-22T23:30:46.872Z,2.83
2022-09-22T23:33:13.671Z,2.57
2022-09-22T23:35:40.407Z,2.70
2022-09-22T23:38:09.051Z,2.57
2022-09-22T23:40:36.079Z,2.53
2022-09-22T23:43:02.959Z,2.70
2022-09-22T23:45:29.541Z,2.90
2022-09-22T23:47:56.280Z,2.60
2022-09-22T23:50:22.869Z,2.80
2022-09-22T23:52:49.641Z,2.43
2022-09-22T23:55:16.318Z,2.40
2022-09-22T23:57:42.987Z,2.50
